Time;durP1;ratioP1;P1;durP2;ratioP2;P2;SDS_P1;SDS_P2;PMS_P1;PMS_P2;Temp;Humidity;BMP_temperature;BMP_pressure;BME280_temperature;BME280_humidity;BME280_pressure;Samples;Min_cycle;Max_cycle;Signal;HPM_P1;HPM_P2
2022/10/26 00:00:04;;;;;;;0.10;0.10;;;11.70;99.90;;;;;;4857371;29;20049;-73
2022/10/26 00:02:30;;;;;;;0.10;0.10;;;11.50;99.90;;;;;;4860500;29;20055;-73
2022/10/26 00:04:55;;;;;;;0.10;0.10;;;11.50;99.90;;;;;;4858388;29;20049;-73
2022/10/26 00:07:21;;;;;;;0.10;0.10;;;11.50;99.90;;;;;;4844908;29;20398;-74
2022/10/26 00:09:47;;;;;;;0.10;0.10;;;11.50;99.90;;;;;;4867049;29;20053;-73
2022/10/26 00:12:12;;;;;;;0.10;0.10;;;11.60;99.90;;;;;;4879045;29;20195;-74
2022/10/26 00:14:38;;;;;;;0.20;0.20;;;11.50;99.90;;;;;;4880882;29;20457;-73
2022/10/26 00:17:03;;;;;;;0.10;0.10;;;11.50;99.90;;;;;;4871920;29;20101;-74
2022/10/26 00:19:32;;;;;;;0.20;0.20;;;11.50;99.90;;;;;;4878171;29;20072;-74
2022/10/26 00:21:58;;;;;;;0.10;0.10;;;11.50;99.90;;;;;;4861214;29;20053;-74
2022/10/26 00:24:24;;;;;;;0.13;0.13;;;11.50;99.90;;;;;;4869727;29;20773;-73
2022/10/26 00:26:49;;;;;;;0.15;0.15;;;11.50;99.90;;;;;;4871263;29;20173;-73
2022/10/26 00:29:17;;;;;;;0.10;0.10;;;11.50;99.90;;;;;;4858638;29;20057;-73
2022/10/26 00:31:43;;;;;;;0.10;0.10;;;11.50;99.90;;;;;;4882117;29;20104;-73
2022/10/26 00:34:10;;;;;;;0.17;0.17;;;11.50;99.90;;;;;;4878949;29;20048;-73
2022/10/26 00:36:36;;;;;;;0.10;0.10;;;11.50;99.90;;;;;;4861931;29;20101;-73
2022/10/26 00:39:02;;;;;;;0.15;0.15;;;11.50;99.90;;;;;;4878923;29;20491;-74
2022/10/26 00:41:31;;;;;;;0.20;0.20;;;11.50;99.90;;;;;;4877081;29;20129;-74
2022/10/26 00:43:57;;;;;;;0.17;0.17;;;11.50;99.90;;;;;;4848181;29;20546;-73
2022/10/26 00:46:25;;;;;;;0.10;0.10;;;11.60;99.90;;;;;;4843166;29;20149;-74
2022/10/26 00:48:55;;;;;;;0.10;0.10;;;11.50;99.90;;;;;;4859431;29;20529;-73
2022/10/26 00:51:36;;;;;;;0.10;0.10;;;11.40;99.90;;;;;;4842798;29;20121;-73
2022/10/26 00:54:05;;;;;;;0.10;0.10;;;11.50;99.90;;;;;;4871087;29;20087;-74
2022/10/26 00:56:31;;;;;;;0.13;0.13;;;11.50;99.90;;;;;;4860772;29;20302;-74
2022/10/26 00:59:02;;;;;;;0.10;0.10;;;11.70;99.90;;;;;;4881866;29;20566;-74
2022/10/26 01:01:29;;;;;;;0.20;0.20;;;11.50;99.90;;;;;;4889689;29;20033;-73
2022/10/26 01:03:56;;;;;;;0.15;0.15;;;11.50;99.90;;;;;;4891680;29;20048;-74
2022/10/26 01:06:22;;;;;;;0.10;0.10;;;11.50;99.90;;;;;;4881566;29;20425;-74
2022/10/26 01:08:48;;;;;;;0.20;0.20;;;11.50;99.90;;;;;;4873632;29;20061;-73
2022/10/26 01:11:14;;;;;;;0.10;0.10;;;11.40;99.90;;;;;;4877875;29;20109;-74
2022/10/26 01:13:42;;;;;;;0.10;0.10;;;11.40;99.90;;;;;;4870543;29;20498;-73
2022/10/26 01:16:29;;;;;;;0.10;0.10;;;11.50;99.90;;;;;;4872139;29;20049;-74
2022/10/26 01:19:09;;;;;;;0.10;0.10;;;11.40;99.90;;;;;;4878905;29;20120;-73
2022/10/26 01:21:57;;;;;;;0.10;0.10;;;11.40;99.90;;;;;;4869029;29;20073;-73
2022/10/26 01:24:48;;;;;;;0.20;0.20;;;11.40;99.90;;;;;;4882656;29;20429;-74
2022/10/26 01:27:33;;;;;;;0.20;0.20;;;11.30;99.90;;;;;;4875721;29;20574;-74
2022/10/26 01:30:18;;;;;;;0.17;0.17;;;11.30;99.90;;;;;;4877963;29;20527;-74
2022/10/26 01:33:11;;;;;;;0.10;0.10;;;11.30;99.90;;;;;;4892304;29;20048;-74
2022/10/26 01:35:58;;;;;;;0.10;0.10;;;11.30;99.90;;;;;;4881783;29;20244;-74
2022/10/26 01:39:02;;;;;;;0.20;0.20;;;11.20;99.90;;;;;;4881325;29;20450;-74
2022/10/26 01:41:45;;;;;;;0.20;0.20;;;11.20;99.90;;;;;;4859141;29;20087;-74
2022/10/26 01:44:41;;;;;;;0.20;0.20;;;11.40;99.90;;;;;;4874573;29;20049;-74
2022/10/26 01:47:10;;;;;;;0.10;0.10;;;11.20;99.90;;;;;;4867667;29;20459;-74
2022/10/26 01:49:39;;;;;;;0.15;0.15;;;11.10;99.90;;;;;;4873777;29;20695;-74
2022/10/26 01:52:04;;;;;;;0.20;0.20;;;11.20;99.90;;;;;;4889111;29;20252;-74
2022/10/26 01:54:36;;;;;;;0.13;0.13;;;11.40;99.90;;;;;;4878414;29;20482;-74
2022/10/26 01:57:05;;;;;;;0.10;0.10;;;11.10;99.90;;;;;;4853667;29;20100;-73
2022/10/26 01:59:53;;;;;;;0.10;0.10;;;11.10;99.90;;;;;;4864947;29;20041;-74
2022/10/26 02:02:31;;;;;;;0.10;0.10;;;11.10;99.90;;;;;;4891375;29;20453;-73
2022/10/26 02:05:24;;;;;;;0.13;0.13;;;11.10;99.90;;;;;;4890308;29;20056;-74
2022/10/26 02:07:55;;;;;;;0.10;0.10;;;11.10;99.90;;;;;;4859575;29;20057;-74
2022/10/26 02:10:49;;;;;;;0.20;0.20;;;11.00;99.90;;;;;;4859542;29;20061;-73
2022/10/26 02:13:31;;;;;;;0.10;0.10;;;11.00;99.90;;;;;;4856627;29;20092;-74
2022/10/26 02:16:26;;;;;;;0.10;0.10;;;11.00;99.90;;;;;;4841434;29;20057;-74
2022/10/26 02:18:57;;;;;;;0.10;0.10;;;11.00;99.90;;;;;;4859768;29;20132;-74
2022/10/26 02:21:28;;;;;;;0.20;0.20;;;11.00;99.90;;;;;;4859845;29;20044;-74
2022/10/26 02:23:57;;;;;;;0.13;0.13;;;10.90;99.90;;;;;;4876880;29;20056;-74
2022/10/26 02:26:27;;;;;;;0.10;0.10;;;10.90;99.90;;;;;;4858627;29;20084;-74
2022/10/26 02:28:57;;;;;;;0.20;0.20;;;10.80;99.90;;;;;;4856156;29;20189;-74
2022/10/26 02:31:24;;;;;;;0.20;0.20;;;10.90;99.90;;;;;;4864348;29;20061;-74
2022/10/26 02:33:51;;;;;;;0.10;0.10;;;10.90;99.90;;;;;;4874506;29;20109;-74
2022/10/26 02:36:27;;;;;;;0.17;0.17;;;10.90;99.90;;;;;;4874344;29;20401;-74
2022/10/26 02:38:56;;;;;;;0.15;0.15;;;10.80;99.90;;;;;;4875385;29;20071;-74
2022/10/26 02:41:24;;;;;;;0.10;0.10;;;10.80;99.90;;;;;;4857201;29;20072;-73
2022/10/26 02:44:00;;;;;;;0.17;0.17;;;10.70;99.90;;;;;;4874329;29;20100;-73
2022/10/26 02:46:27;;;;;;;0.10;0.10;;;10.70;99.90;;;;;;4873570;29;20061;-74
2022/10/26 02:48:54;;;;;;;0.08;0.08;;;10.70;99.90;;;;;;4859445;29;20049;-73
2022/10/26 02:51:39;;;;;;;0.10;0.10;;;10.60;99.90;;;;;;4872909;29;20061;-73
2022/10/26 02:54:16;;;;;;;0.10;0.10;;;10.60;99.90;;;;;;4860967;29;20072;-74
2022/10/26 02:56:54;;;;;;;0.10;0.10;;;10.60;99.90;;;;;;4875047;29;20041;-73
2022/10/26 02:59:22;;;;;;;0.20;0.20;;;10.60;99.90;;;;;;4858917;29;20093;-74
2022/10/26 03:01:50;;;;;;;0.10;0.10;;;10.50;99.90;;;;;;4865117;29;20556;-73
2022/10/26 03:04:16;;;;;;;0.17;0.17;;;10.50;99.90;;;;;;4872332;29;20108;-73
2022/10/26 03:06:50;;;;;;;0.17;0.17;;;10.60;99.90;;;;;;4869417;29;20040;-74
2022/10/26 03:09:15;;;;;;;0.10;0.10;;;10.60;99.90;;;;;;4868436;29;20061;-73
2022/10/26 03:11:41;;;;;;;0.10;0.10;;;10.60;99.90;;;;;;4854257;29;20635;-74
2022/10/26 03:14:07;;;;;;;0.20;0.20;;;10.50;99.90;;;;;;4857095;29;20122;-74
2022/10/26 03:16:32;;;;;;;0.10;0.10;;;10.50;99.90;;;;;;4865537;29;20045;-74
2022/10/26 03:18:58;;;;;;;0.20;0.20;;;10.50;99.90;;;;;;4874378;29;20041;-75
2022/10/26 03:21:23;;;;;;;0.17;0.17;;;10.50;99.90;;;;;;4874478;29;20478;-74
2022/10/26 03:23:50;;;;;;;0.17;0.17;;;10.50;99.90;;;;;;4875849;29;20040;-75
2022/10/26 03:26:16;;;;;;;0.10;0.10;;;10.50;99.90;;;;;;4859383;29;20053;-75
2022/10/26 03:28:42;;;;;;;0.20;0.20;;;10.50;99.90;;;;;;4856538;29;20046;-74
2022/10/26 03:31:07;;;;;;;0.10;0.10;;;10.50;99.90;;;;;;4856104;29;20057;-75
2022/10/26 03:33:33;;;;;;;0.10;0.10;;;10.60;99.90;;;;;;4871774;29;20144;-74
2022/10/26 03:35:58;;;;;;;0.10;0.10;;;10.60;99.90;;;;;;4858611;29;20104;-74
2022/10/26 03:38:24;;;;;;;0.10;0.10;;;10.50;99.90;;;;;;4875269;29;20048;-75
2022/10/26 03:40:50;;;;;;;0.10;0.10;;;10.60;99.90;;;;;;4876262;29;20422;-74
2022/10/26 03:43:15;;;;;;;0.10;0.10;;;10.50;99.90;;;;;;4857114;29;20049;-75
2022/10/26 03:45:41;;;;;;;0.10;0.10;;;10.50;99.90;;;;;;4876261;29;20096;-74
2022/10/26 03:48:07;;;;;;;0.15;0.15;;;10.50;99.90;;;;;;4874089;29;20512;-74
2022/10/26 03:50:32;;;;;;;0.10;0.10;;;10.50;99.90;;;;;;4874757;29;20391;-74
2022/10/26 03:52:58;;;;;;;0.20;0.20;;;10.50;99.90;;;;;;4879080;29;20057;-74
2022/10/26 03:55:24;;;;;;;0.10;0.10;;;10.70;99.90;;;;;;4878966;29;20364;-75
2022/10/26 03:57:49;;;;;;;0.20;0.20;;;10.40;99.90;;;;;;4860945;29;20470;-75
2022/10/26 04:00:16;;;;;;;0.10;0.10;;;10.50;99.90;;;;;;4862717;29;20164;-74
2022/10/26 04:02:45;;;;;;;0.20;0.20;;;10.50;99.90;;;;;;4878478;29;20140;-74
2022/10/26 04:05:11;;;;;;;0.10;0.10;;;10.50;99.90;;;;;;4860732;29;20502;-74
2022/10/26 04:07:37;;;;;;;0.10;0.10;;;10.50;99.90;;;;;;4879344;29;20136;-75
2022/10/26 04:10:04;;;;;;;0.13;0.13;;;10.50;99.90;;;;;;4875063;29;20056;-74
2022/10/26 04:12:29;;;;;;;0.20;0.20;;;10.50;99.90;;;;;;4858081;29;20505;-74
2022/10/26 04:14:56;;;;;;;0.20;0.20;;;10.70;99.90;;;;;;4864655;29;20047;-74
2022/10/26 04:17:23;;;;;;;0.20;0.20;;;10.50;99.90;;;;;;4877466;29;20053;-74
2022/10/26 04:19:49;;;;;;;0.10;0.10;;;10.50;99.90;;;;;;4860730;29;20098;-74
2022/10/26 04:22:14;;;;;;;0.20;0.20;;;10.50;99.90;;;;;;4861901;29;20481;-75
2022/10/26 04:24:40;;;;;;;0.20;0.20;;;10.60;99.90;;;;;;4878133;29;20053;-74
2022/10/26 04:27:05;;;;;;;0.20;0.20;;;10.50;99.90;;;;;;4878243;29;20053;-74
2022/10/26 04:29:31;;;;;;;0.10;0.10;;;10.50;99.90;;;;;;4873492;29;20048;-75
2022/10/26 04:31:57;;;;;;;0.10;0.10;;;10.50;99.90;;;;;;4881630;29;20045;-74
2022/10/26 04:34:22;;;;;;;0.20;0.20;;;10.50;99.90;;;;;;4873562;29;20134;-75
2022/10/26 04:36:48;;;;;;;0.20;0.20;;;10.50;99.90;;;;;;4881806;29;20080;-75
2022/10/26 04:39:13;;;;;;;0.30;0.30;;;10.50;99.90;;;;;;4877173;29;20101;-75
2022/10/26 04:41:39;;;;;;;0.10;0.10;;;10.50;99.90;;;;;;4877456;29;20081;-75
2022/10/26 04:44:05;;;;;;;0.10;0.10;;;10.50;99.90;;;;;;4878474;29;20057;-74
2022/10/26 04:46:30;;;;;;;0.10;0.10;;;10.50;99.90;;;;;;4877782;29;20124;-75
2022/10/26 04:48:56;;;;;;;0.10;0.10;;;10.50;99.90;;;;;;4861386;29;20044;-75
2022/10/26 04:51:22;;;;;;;0.10;0.10;;;10.50;99.90;;;;;;4878045;29;20165;-74
2022/10/26 04:53:47;;;;;;;0.10;0.10;;;10.50;99.90;;;;;;4877676;29;20383;-75
2022/10/26 04:56:13;;;;;;;0.20;0.20;;;10.50;99.90;;;;;;4876815;29;20057;-75
2022/10/26 04:58:38;;;;;;;0.20;0.20;;;10.70;99.90;;;;;;4875901;29;20044;-75
2022/10/26 05:01:04;;;;;;;0.10;0.10;;;10.60;99.90;;;;;;4875582;29;20469;-73
2022/10/26 05:03:30;;;;;;;0.20;0.20;;;10.50;99.90;;;;;;4859656;29;20045;-74
2022/10/26 05:05:58;;;;;;;0.20;0.20;;;10.60;99.90;;;;;;4875989;29;20052;-74
2022/10/26 05:08:24;;;;;;;0.10;0.10;;;10.60;99.90;;;;;;4860191;29;20100;-74
2022/10/26 05:10:49;;;;;;;0.17;0.17;;;10.60;99.90;;;;;;4861139;29;20092;-74
2022/10/26 05:13:15;;;;;;;0.10;0.10;;;10.60;99.90;;;;;;4875726;29;20063;-74
2022/10/26 05:15:41;;;;;;;0.10;0.10;;;10.60;99.90;;;;;;4870234;29;20044;-74
2022/10/26 05:18:08;;;;;;;0.10;0.10;;;10.70;99.90;;;;;;4876983;29;20093;-74
2022/10/26 05:20:35;;;;;;;0.10;0.10;;;10.60;99.90;;;;;;4877911;29;20057;-74
2022/10/26 05:23:03;;;;;;;0.10;0.10;;;10.60;99.90;;;;;;4877196;29;20084;-73
2022/10/26 05:25:31;;;;;;;0.20;0.20;;;10.60;99.90;;;;;;4860827;29;20053;-74
2022/10/26 05:28:02;;;;;;;0.10;0.10;;;11.10;99.90;;;;;;4873576;29;20047;-74
2022/10/26 05:30:28;;;;;;;0.10;0.10;;;10.60;99.90;;;;;;4858847;29;20050;-74
2022/10/26 05:32:58;;;;;;;0.10;0.10;;;10.60;99.90;;;;;;4872483;29;20084;-74
2022/10/26 05:35:24;;;;;;;0.10;0.10;;;10.70;99.90;;;;;;4877993;29;20545;-74
2022/10/26 05:37:50;;;;;;;0.20;0.20;;;10.70;99.90;;;;;;4875045;29;20910;-74
2022/10/26 05:40:16;;;;;;;0.20;0.20;;;10.80;99.90;;;;;;4885756;29;20413;-74
2022/10/26 05:42:43;;;;;;;0.20;0.20;;;10.70;99.90;;;;;;4858057;29;20449;-74
2022/10/26 05:45:09;;;;;;;0.20;0.20;;;10.70;99.90;;;;;;4891448;29;20085;-74
2022/10/26 05:47:40;;;;;;;0.20;0.20;;;10.70;99.90;;;;;;4884499;29;20041;-74
2022/10/26 05:50:06;;;;;;;0.10;0.10;;;10.70;99.90;;;;;;4882963;29;20052;-74
2022/10/26 05:52:43;;;;;;;0.20;0.20;;;10.70;99.90;;;;;;4860018;29;20068;-74
2022/10/26 05:55:11;;;;;;;0.10;0.10;;;10.80;99.90;;;;;;4877179;29;20045;-74
2022/10/26 05:57:37;;;;;;;0.10;0.10;;;10.70;99.90;;;;;;4858375;29;20117;-74
2022/10/26 06:00:13;;;;;;;0.20;0.20;;;10.80;99.90;;;;;;4860268;29;20049;-74
2022/10/26 06:03:08;;;;;;;0.10;0.10;;;10.80;99.90;;;;;;4876935;29;20076;-74
2022/10/26 06:05:40;;;;;;;0.10;0.10;;;10.80;99.90;;;;;;4875313;29;20456;-74
2022/10/26 06:08:09;;;;;;;0.20;0.20;;;10.80;99.90;;;;;;4863457;29;20052;-75
2022/10/26 06:10:35;;;;;;;0.10;0.10;;;10.80;99.90;;;;;;4853389;29;20053;-75
2022/10/26 06:13:01;;;;;;;0.10;0.10;;;10.80;99.90;;;;;;4850697;29;20048;-75
2022/10/26 06:15:29;;;;;;;0.20;0.20;;;10.80;99.90;;;;;;4853984;29;20049;-74
2022/10/26 06:18:21;;;;;;;0.20;0.20;;;10.90;99.90;;;;;;4841477;29;20058;-74
2022/10/26 06:21:14;;;;;;;0.20;0.20;;;11.00;99.90;;;;;;4854763;29;20121;-74
2022/10/26 06:23:54;;;;;;;0.17;0.17;;;10.90;99.90;;;;;;4861395;29;20089;-74
2022/10/26 06:26:35;;;;;;;0.20;0.20;;;11.00;99.90;;;;;;4862324;29;20057;-75
2022/10/26 06:29:23;;;;;;;0.17;0.17;;;10.90;99.90;;;;;;4860972;29;20045;-75
2022/10/26 06:31:49;;;;;;;0.10;0.10;;;10.90;99.90;;;;;;4845790;29;20053;-75
2022/10/26 06:34:24;;;;;;;0.10;0.10;;;11.00;99.90;;;;;;4857308;29;20053;-74
2022/10/26 06:36:51;;;;;;;0.10;0.10;;;11.00;99.90;;;;;;4848376;29;20511;-75
2022/10/26 06:39:17;;;;;;;0.20;0.20;;;11.00;99.90;;;;;;4852799;29;20053;-75
2022/10/26 06:41:43;;;;;;;0.15;0.15;;;11.00;99.90;;;;;;4875053;29;20060;-75
2022/10/26 06:44:16;;;;;;;0.20;0.20;;;11.00;99.90;;;;;;4861790;29;20052;-75
2022/10/26 06:47:02;;;;;;;0.20;0.20;;;11.10;99.90;;;;;;4846482;29;20053;-75
2022/10/26 06:49:32;;;;;;;0.20;0.20;;;11.00;99.90;;;;;;4843067;29;20064;-74
2022/10/26 06:52:21;;;;;;;0.13;0.13;;;11.10;99.90;;;;;;4858077;29;20053;-75
2022/10/26 06:54:52;;;;;;;0.20;0.20;;;11.10;99.90;;;;;;4838880;29;20058;-74
2022/10/26 06:57:20;;;;;;;0.10;0.10;;;11.20;99.90;;;;;;4859543;29;20049;-75
2022/10/26 06:59:59;;;;;;;0.10;0.10;;;11.20;99.90;;;;;;4855959;29;20054;-75
2022/10/26 07:02:25;;;;;;;0.10;0.10;;;11.10;99.90;;;;;;4843763;29;20131;-75
2022/10/26 07:04:51;;;;;;;0.20;0.20;;;11.20;99.90;;;;;;4867824;29;20225;-75
2022/10/26 07:07:22;;;;;;;0.15;0.15;;;11.30;99.90;;;;;;4863725;29;20494;-75
2022/10/26 07:09:48;;;;;;;0.20;0.20;;;11.20;99.90;;;;;;4874272;29;20059;-75
2022/10/26 07:12:14;;;;;;;0.10;0.10;;;11.30;99.90;;;;;;4872439;29;20045;-76
2022/10/26 07:14:39;;;;;;;0.10;0.10;;;11.30;99.90;;;;;;4874404;29;20144;-77
2022/10/26 07:17:05;;;;;;;0.10;0.10;;;11.30;99.90;;;;;;4866455;29;20040;-75
2022/10/26 07:19:31;;;;;;;0.17;0.17;;;11.30;99.90;;;;;;4875888;29;20052;-75
2022/10/26 07:22:00;;;;;;;0.10;0.10;;;11.40;99.90;;;;;;4880064;29;20409;-76
2022/10/26 07:24:29;;;;;;;0.10;0.10;;;11.40;99.90;;;;;;4859276;29;20181;-75
2022/10/26 07:26:56;;;;;;;0.10;0.10;;;11.50;99.90;;;;;;4874830;29;20052;-75
2022/10/26 07:29:23;;;;;;;0.10;0.10;;;11.40;99.90;;;;;;4872645;29;20501;-75
2022/10/26 07:31:49;;;;;;;0.20;0.20;;;11.40;99.90;;;;;;4878297;29;20551;-75
2022/10/26 07:34:15;;;;;;;0.10;0.10;;;11.50;99.90;;;;;;4879624;29;20044;-75
2022/10/26 07:36:40;;;;;;;0.10;0.10;;;11.50;99.90;;;;;;4862251;29;20158;-75
2022/10/26 07:39:06;;;;;;;0.20;0.20;;;11.50;99.90;;;;;;4879363;29;20045;-75
2022/10/26 07:41:32;;;;;;;0.10;0.10;;;11.50;99.90;;;;;;4859410;29;20054;-75
2022/10/26 07:43:58;;;;;;;0.17;0.17;;;11.60;99.90;;;;;;4859975;29;20134;-75
2022/10/26 07:46:25;;;;;;;0.10;0.10;;;11.60;99.90;;;;;;4856472;29;20088;-75
2022/10/26 07:48:50;;;;;;;0.20;0.20;;;11.60;99.90;;;;;;4878503;29;20045;-75
2022/10/26 07:51:16;;;;;;;0.13;0.13;;;11.60;99.90;;;;;;4878588;29;20051;-75
2022/10/26 07:53:41;;;;;;;0.13;0.13;;;11.60;99.90;;;;;;4873945;29;20037;-75
2022/10/26 07:56:08;;;;;;;0.15;0.15;;;11.70;99.90;;;;;;4874130;29;20101;-75
2022/10/26 07:58:35;;;;;;;0.10;0.10;;;11.70;99.90;;;;;;4876633;29;20044;-76
2022/10/26 08:01:09;;;;;;;0.10;0.10;;;11.70;99.90;;;;;;4878247;29;20056;-75
2022/10/26 08:03:35;;;;;;;0.20;0.20;;;11.80;99.90;;;;;;4861113;29;20044;-75
2022/10/26 08:06:02;;;;;;;0.20;0.20;;;11.80;99.90;;;;;;4862477;29;20052;-76
2022/10/26 08:08:29;;;;;;;0.10;0.10;;;11.80;99.90;;;;;;4878998;29;20131;-75
2022/10/26 08:10:54;;;;;;;0.20;0.20;;;11.90;99.90;;;;;;4861747;29;20056;-75
2022/10/26 08:13:20;;;;;;;0.20;0.20;;;11.90;99.90;;;;;;4864710;29;20116;-75
2022/10/26 08:15:46;;;;;;;0.10;0.10;;;11.90;99.90;;;;;;4866607;29;20045;-75
2022/10/26 08:18:12;;;;;;;0.10;0.10;;;12.00;99.90;;;;;;4863410;29;20379;-75
2022/10/26 08:20:38;;;;;;;0.10;0.10;;;12.00;99.90;;;;;;4878563;29;20060;-75
2022/10/26 08:23:05;;;;;;;0.10;0.10;;;12.10;99.90;;;;;;4877884;29;20060;-75
2022/10/26 08:25:31;;;;;;;0.10;0.10;;;12.10;99.90;;;;;;4878056;29;20393;-76
2022/10/26 08:28:01;;;;;;;0.20;0.20;;;12.20;99.90;;;;;;4877316;29;20397;-76
2022/10/26 08:30:28;;;;;;;0.10;0.10;;;12.20;99.90;;;;;;4878785;29;20049;-75
2022/10/26 08:33:04;;;;;;;0.20;0.20;;;12.20;99.90;;;;;;4877086;29;20064;-75
2022/10/26 08:35:31;;;;;;;0.10;0.10;;;12.30;99.90;;;;;;4877164;29;20040;-75
2022/10/26 08:37:56;;;;;;;0.20;0.20;;;12.30;99.90;;;;;;4875589;29;20099;-75
2022/10/26 08:40:26;;;;;;;0.10;0.10;;;12.40;99.90;;;;;;4878333;29;20489;-75
2022/10/26 08:43:03;;;;;;;0.10;0.10;;;12.50;99.90;;;;;;4877593;29;20049;-75
2022/10/26 08:45:47;;;;;;;0.20;0.20;;;12.50;99.90;;;;;;4878044;29;20044;-75
2022/10/26 08:48:21;;;;;;;0.10;0.10;;;12.60;99.90;;;;;;4877855;29;20059;-75
2022/10/26 08:50:55;;;;;;;0.10;0.10;;;12.60;99.90;;;;;;4878142;29;20041;-75
2022/10/26 08:53:26;;;;;;;0.10;0.10;;;12.70;99.90;;;;;;4876853;29;20394;-76
2022/10/26 08:56:20;;;;;;;0.20;0.20;;;12.70;99.90;;;;;;4875286;29;20450;-75
2022/10/26 08:58:52;;;;;;;0.20;0.20;;;12.80;99.90;;;;;;4875105;29;20056;-75
2022/10/26 09:01:18;;;;;;;0.10;0.10;;;12.90;99.90;;;;;;4860770;29;20059;-75
2022/10/26 09:03:43;;;;;;;0.10;0.10;;;12.90;99.90;;;;;;4878048;29;20045;-75
2022/10/26 09:06:22;;;;;;;0.13;0.13;;;13.00;99.90;;;;;;4877214;29;20100;-75
2022/10/26 09:08:55;;;;;;;0.10;0.10;;;13.10;99.90;;;;;;4877564;29;20061;-76
2022/10/26 09:11:32;;;;;;;0.10;0.10;;;13.20;99.90;;;;;;4877769;29;20121;-76
2022/10/26 09:14:11;;;;;;;0.10;0.10;;;13.30;99.90;;;;;;4876241;29;20056;-76
2022/10/26 09:16:51;;;;;;;0.10;0.10;;;13.30;99.90;;;;;;4861280;29;20260;-76
2022/10/26 09:19:23;;;;;;;0.20;0.20;;;13.40;99.90;;;;;;4860929;29;20521;-75
2022/10/26 09:22:17;;;;;;;0.20;0.20;;;13.40;99.90;;;;;;4840538;29;20060;-75
2022/10/26 09:24:54;;;;;;;0.20;0.20;;;13.50;99.90;;;;;;4859455;29;20094;-76
2022/10/26 09:27:31;;;;;;;0.20;0.20;;;13.60;99.90;;;;;;4860596;29;20537;-76
2022/10/26 09:30:02;;;;;;;0.10;0.10;;;13.60;99.90;;;;;;4861261;29;20101;-76
2022/10/26 09:32:43;;;;;;;0.88;0.85;;;13.80;99.90;;;;;;4870185;29;20517;-75
2022/10/26 09:35:18;;;;;;;0.20;0.20;;;13.80;99.90;;;;;;4854955;29;20053;-76
2022/10/26 09:37:50;;;;;;;0.20;0.20;;;13.90;99.90;;;;;;4856622;29;20049;-75
2022/10/26 09:40:25;;;;;;;0.10;0.10;;;14.00;99.90;;;;;;4873954;29;20076;-76
2022/10/26 09:43:03;;;;;;;0.20;0.20;;;14.00;99.90;;;;;;4858765;29;20435;-76
2022/10/26 09:45:30;;;;;;;0.10;0.10;;;14.20;99.90;;;;;;4860239;29;20049;-76
2022/10/26 09:48:03;;;;;;;0.20;0.20;;;14.30;99.90;;;;;;4860314;29;20045;-75
2022/10/26 09:50:38;;;;;;;0.20;0.20;;;14.40;99.90;;;;;;4876071;29;20395;-76
2022/10/26 09:53:04;;;;;;;0.15;0.15;;;14.50;99.90;;;;;;4872206;29;20053;-76
2022/10/26 09:55:37;;;;;;;0.17;0.17;;;14.60;99.90;;;;;;4875793;29;20473;-76
2022/10/26 09:58:11;;;;;;;0.13;0.13;;;14.70;99.90;;;;;;4859521;29;20061;-75
2022/10/26 10:00:38;;;;;;;0.20;0.20;;;14.80;99.90;;;;;;4877416;29;20041;-76
2022/10/26 10:03:18;;;;;;;0.20;0.20;;;14.90;99.90;;;;;;4875993;29;20501;-77
2022/10/26 10:05:44;;;;;;;0.20;0.20;;;15.10;99.90;;;;;;4858494;29;20050;-76
2022/10/26 10:08:17;;;;;;;0.20;0.20;;;15.10;99.90;;;;;;4831595;29;20114;-75
2022/10/26 10:11:07;;;;;;;0.20;0.20;;;15.20;99.90;;;;;;4839059;29;20285;-76
2022/10/26 10:13:36;;;;;;;0.20;0.20;;;15.40;99.90;;;;;;4841040;29;20046;-75
2022/10/26 10:16:07;;;;;;;0.20;0.20;;;15.50;99.90;;;;;;4858218;29;20082;-76
2022/10/26 10:18:35;;;;;;;0.15;0.15;;;15.60;99.90;;;;;;4841645;29;20525;-76
2022/10/26 10:21:01;;;;;;;0.20;0.20;;;15.80;99.90;;;;;;4839803;29;20073;-75
2022/10/26 10:23:30;;;;;;;0.20;0.20;;;15.90;99.90;;;;;;4841795;29;20045;-75
2022/10/26 10:26:05;;;;;;;0.20;0.20;;;16.00;99.90;;;;;;4857920;29;20053;-76
2022/10/26 10:28:32;;;;;;;0.20;0.20;;;16.10;99.90;;;;;;4856598;29;20057;-75
2022/10/26 10:31:18;;;;;;;0.20;0.20;;;16.20;99.90;;;;;;4840626;29;20128;-76
2022/10/26 10:33:44;;;;;;;0.20;0.20;;;16.30;99.90;;;;;;4847715;29;20053;-74
2022/10/26 10:36:21;;;;;;;0.10;0.10;;;16.50;99.90;;;;;;4853700;29;20520;-75
2022/10/26 10:38:49;;;;;;;0.20;0.20;;;16.50;99.90;;;;;;4846693;29;20049;-75
2022/10/26 10:41:29;;;;;;;0.20;0.20;;;16.60;99.90;;;;;;4866501;29;20076;-75
2022/10/26 10:44:05;;;;;;;0.10;0.10;;;16.50;99.90;;;;;;4870424;29;20558;-75
2022/10/26 10:46:31;;;;;;;0.20;0.20;;;16.60;99.90;;;;;;4874361;29;20056;-75
2022/10/26 10:49:04;;;;;;;0.20;0.20;;;16.50;99.90;;;;;;4845852;29;20499;-75
2022/10/26 10:51:35;;;;;;;0.20;0.20;;;16.60;99.90;;;;;;4822252;29;20058;-74
2022/10/26 10:54:01;;;;;;;0.20;0.20;;;16.60;99.90;;;;;;4859514;29;20049;-74
2022/10/26 10:56:46;;;;;;;0.20;0.20;;;16.60;99.90;;;;;;4859234;29;20042;-75
2022/10/26 10:59:25;;;;;;;0.20;0.20;;;16.50;99.90;;;;;;4856533;29;20044;-74
2022/10/26 11:02:20;;;;;;;0.20;0.20;;;16.50;99.90;;;;;;4838848;29;20064;-74
2022/10/26 11:04:55;;;;;;;0.20;0.20;;;16.60;99.90;;;;;;4854925;29;20049;-74
2022/10/26 11:07:23;;;;;;;0.20;0.20;;;16.60;99.90;;;;;;4849161;29;20139;-75
2022/10/26 11:09:50;;;;;;;0.20;0.20;;;16.60;99.90;;;;;;4875325;29;20548;-75
2022/10/26 11:12:22;;;;;;;0.10;0.10;;;16.70;99.90;;;;;;4872442;29;20101;-75
2022/10/26 11:14:52;;;;;;;;;;;16.70;99.90;;;;;;4870625;29;20063;-75
2022/10/26 11:17:24;;;;;;;0.20;0.20;;;16.80;99.90;;;;;;4863914;29;19980;-74
2022/10/26 11:20:01;;;;;;;0.20;0.20;;;16.80;99.90;;;;;;4862609;29;20045;-75
2022/10/26 11:22:36;;;;;;;0.20;0.20;;;16.90;99.90;;;;;;4860132;29;20082;-75
2022/10/26 11:25:04;;;;;;;0.20;0.20;;;17.00;99.90;;;;;;4874809;29;20065;-75
2022/10/26 11:27:46;;;;;;;0.20;0.20;;;17.10;99.90;;;;;;4868050;29;20055;-75
2022/10/26 11:30:19;;;;;;;0.20;0.20;;;17.10;99.90;;;;;;4859229;29;20072;-75
2022/10/26 11:33:08;;;;;;;0.20;0.20;;;17.30;99.90;;;;;;4868583;29;20076;-74
2022/10/26 11:35:55;;;;;;;0.20;0.20;;;17.50;99.90;;;;;;4868954;29;20049;-75
2022/10/26 11:38:39;;;;;;;0.20;0.20;;;17.60;99.90;;;;;;4865187;29;20060;-75
2022/10/26 11:41:42;;;;;;;0.17;0.17;;;17.80;99.90;;;;;;4873731;29;20049;-75
2022/10/26 11:44:33;;;;;;;0.20;0.20;;;17.90;99.90;;;;;;4875766;29;20127;-75
2022/10/26 11:47:23;;;;;;;0.20;0.20;;;18.00;99.90;;;;;;4873315;29;20041;-76
2022/10/26 11:49:59;;;;;;;0.20;0.20;;;18.20;99.90;;;;;;4871433;29;20040;-75
2022/10/26 11:52:35;;;;;;;0.20;0.20;;;18.40;99.90;;;;;;4839135;29;20157;-75
2022/10/26 11:55:03;;;;;;;0.20;0.20;;;18.70;99.90;;;;;;4866872;29;20437;-75
2022/10/26 11:57:35;;;;;;;0.20;0.20;;;18.80;99.90;;;;;;4844427;29;20049;-76
2022/10/26 12:00:07;;;;;;;0.20;0.20;;;19.00;99.90;;;;;;4867394;29;20078;-75
2022/10/26 12:02:40;;;;;;;0.20;0.20;;;19.20;99.90;;;;;;4857938;29;20512;-75
2022/10/26 12:05:20;;;;;;;0.10;0.10;;;19.50;99.90;;;;;;4858503;29;20068;-75
2022/10/26 12:07:59;;;;;;;0.20;0.20;;;19.70;99.90;;;;;;4875137;29;20089;-75
2022/10/26 12:10:31;;;;;;;0.20;0.20;;;20.10;99.90;;;;;;4852542;29;20081;-75
2022/10/26 12:13:19;;;;;;;0.20;0.20;;;20.40;99.90;;;;;;4841211;29;20340;-75
2022/10/26 12:16:17;;;;;;;0.20;0.20;;;20.80;99.90;;;;;;4877187;29;20485;-75
2022/10/26 12:18:51;;;;;;;0.20;0.20;;;21.40;99.90;;;;;;4855414;29;20041;-75
2022/10/26 12:21:17;;;;;;;0.20;0.20;;;22.00;99.90;;;;;;4853350;29;20493;-75
2022/10/26 12:24:21;;;;;;;0.20;0.20;;;22.80;99.90;;;;;;4854345;29;20490;-75
2022/10/26 12:26:55;;;;;;;0.20;0.20;;;22.80;99.90;;;;;;4862507;29;20052;-75
2022/10/26 12:29:23;;;;;;;0.20;0.20;;;22.30;99.90;;;;;;4877924;29;20068;-75
2022/10/26 12:31:49;;;;;;;0.20;0.20;;;22.00;99.90;;;;;;4860183;29;20049;-75
2022/10/26 12:34:23;;;;;;;0.20;0.20;;;21.90;99.90;;;;;;4878546;29;20181;-75
2022/10/26 12:36:55;;;;;;;0.20;0.20;;;22.40;99.90;;;;;;4861794;29;20136;-75
2022/10/26 12:39:40;;;;;;;0.15;0.15;;;23.10;99.90;;;;;;4851550;29;20145;-75
2022/10/26 12:42:09;;;;;;;0.20;0.20;;;24.20;99.90;;;;;;4867099;29;20056;-75
2022/10/26 12:44:40;;;;;;;0.20;0.20;;;25.40;99.90;;;;;;4878022;29;20088;-75
2022/10/26 12:47:07;;;;;;;0.20;0.20;;;26.20;99.90;;;;;;4877918;29;20355;-75
2022/10/26 12:49:58;;;;;;;0.20;0.20;;;26.50;99.90;;;;;;4847074;29;20093;-75
2022/10/26 12:52:29;;;;;;;0.20;0.20;;;26.10;99.90;;;;;;4873403;29;20562;-76
2022/10/26 12:55:52;;;;;;;0.20;0.20;;;25.30;99.90;;;;;;4859311;29;20065;-76
2022/10/26 12:58:33;;;;;;;0.20;0.20;;;24.30;99.90;;;;;;4802767;29;20062;-75
2022/10/26 13:00:59;;;;;;;0.20;0.20;;;23.30;99.90;;;;;;4811498;29;20047;-76
2022/10/26 13:03:43;;;;;;;0.20;0.20;;;22.60;99.90;;;;;;4843793;29;20060;-75
2022/10/26 13:06:40;;;;;;;0.20;0.20;;;22.00;99.90;;;;;;4862229;29;20099;-75
2022/10/26 13:09:32;;;;;;;0.20;0.20;;;21.80;99.90;;;;;;4869995;29;20139;-75
2022/10/26 13:12:01;;;;;;;0.20;0.20;;;21.70;99.90;;;;;;4860829;29;20084;-76